createdAt,value
2019-01-30T00:00:43.151Z,-0.75
2019-01-30T00:03:12.282Z,-0.82
2019-01-30T00:05:41.222Z,-0.87
2019-01-30T00:08:10.492Z,-0.79
2019-01-30T00:10:39.215Z,-0.84
2019-01-30T00:13:07.971Z,-0.84
2019-01-30T00:15:42.035Z,-0.83
2019-01-30T00:18:10.873Z,-0.91
2019-01-30T00:20:41.015Z,-0.88
2019-01-30T00:23:09.613Z,-0.95
2019-01-30T00:25:38.252Z,-0.93
2019-01-30T00:28:07.376Z,-1.22
2019-01-30T00:30:35.959Z,-1.14
2019-01-30T00:33:04.583Z,-1.15
2019-01-30T00:35:34.528Z,-1.32
2019-01-30T00:38:03.144Z,-1.32
2019-01-30T00:40:35.733Z,-1.22
2019-01-30T00:43:04.371Z,-1.25
2019-01-30T00:45:32.988Z,-1.10
2019-01-30T00:48:01.698Z,-1.21
2019-01-30T00:50:30.259Z,-1.22
2019-01-30T00:52:59.228Z,-0.99
2019-01-30T00:55:28.002Z,-0.93
2019-01-30T00:57:58.608Z,-1.04
2019-01-30T01:00:29.108Z,-1.04
2019-01-30T01:02:57.801Z,-0.98
2019-01-30T01:05:26.889Z,-0.92
2019-01-30T01:07:56.125Z,-0.90
2019-01-30T01:10:25.024Z,-0.93
2019-01-30T01:12:53.673Z,-0.98
2019-01-30T01:15:22.567Z,-1.10
2019-01-30T01:17:51.208Z,-1.15
2019-01-30T01:20:22.142Z,-1.04
2019-01-30T01:22:51.160Z,-1.05
2019-01-30T01:25:21.701Z,-1.02
2019-01-30T01:27:54.394Z,-1.23
2019-01-30T01:30:28.140Z,-1.06
2019-01-30T01:32:56.784Z,-1.10
2019-01-30T01:35:25.433Z,-1.13
2019-01-30T01:37:55.063Z,-1.23
2019-01-30T01:40:23.889Z,-1.27
2019-01-30T01:42:52.545Z,-1.26
2019-01-30T01:45:25.251Z,-1.29
2019-01-30T01:47:54.315Z,-1.26
2019-01-30T01:50:23.362Z,-1.30
2019-01-30T01:52:52.105Z,-1.23
2019-01-30T01:55:20.824Z,-1.35
2019-01-30T01:57:50.672Z,-1.35
2019-01-30T02:00:24.379Z,-1.25
2019-01-30T02:02:53.273Z,-1.27
2019-01-30T02:05:23.493Z,-1.26
2019-01-30T02:07:53.393Z,-1.30
2019-01-30T02:10:24.710Z,-1.23
2019-01-30T02:12:53.364Z,-1.32
2019-01-30T02:15:23.837Z,-1.35
2019-01-30T02:17:53.181Z,-1.13
2019-01-30T02:20:28.168Z,-1.38
2019-01-30T02:22:57.687Z,-1.41
2019-01-30T02:25:34.246Z,-1.30
2019-01-30T02:28:03.946Z,-1.30
2019-01-30T02:30:32.474Z,-1.23
2019-01-30T02:33:01.466Z,-1.25
2019-01-30T02:35:30.052Z,-1.20
2019-01-30T02:38:07.233Z,-1.20
2019-01-30T02:40:35.832Z,-1.30
2019-01-30T02:43:04.486Z,-1.30
2019-01-30T02:45:33.497Z,-1.36
2019-01-30T02:48:03.512Z,-1.32
2019-01-30T02:50:35.087Z,-1.27
2019-01-30T02:53:05.636Z,-1.20
2019-01-30T02:55:34.183Z,-1.24
2019-01-30T02:58:02.977Z,-1.38
2019-01-30T03:00:34.759Z,-1.38
2019-01-30T03:03:03.428Z,-1.38
2019-01-30T03:05:32.205Z,-1.34
2019-01-30T03:08:00.767Z,-1.23
2019-01-30T03:10:29.885Z,-1.20
2019-01-30T03:12:58.676Z,-1.34
2019-01-30T03:15:27.521Z,-1.27
2019-01-30T03:17:56.924Z,-1.29
2019-01-30T03:20:27.706Z,-1.55
2019-01-30T03:22:56.465Z,-1.50
2019-01-30T03:25:26.295Z,-1.53
2019-01-30T03:27:54.890Z,-1.61
2019-01-30T03:30:32.607Z,-1.46
2019-01-30T03:33:01.565Z,-1.52
2019-01-30T03:35:30.563Z,-1.56
2019-01-30T03:37:59.212Z,-1.51
2019-01-30T03:40:27.805Z,-1.41
2019-01-30T03:42:56.533Z,-1.39
2019-01-30T03:45:25.443Z,-1.39
2019-01-30T03:47:54.024Z,-1.48
2019-01-30T03:50:22.705Z,-1.56
2019-01-30T03:52:51.767Z,-1.52
2019-01-30T03:55:21.246Z,-1.50
2019-01-30T03:57:49.942Z,-1.60
2019-01-30T04:00:21.348Z,-1.69
2019-01-30T04:02:50.753Z,-1.62
2019-01-30T04:05:19.552Z,-1.73
2019-01-30T04:07:48.196Z,-1.66
2019-01-30T04:10:22.074Z,-1.64
2019-01-30T04:12:51.088Z,-1.73
2019-01-30T04:15:19.839Z,-1.72
2019-01-30T04:17:48.744Z,-1.63
2019-01-30T04:20:19.462Z,-1.62
2019-01-30T04:22:48.621Z,-1.57
2019-01-30T04:25:17.583Z,-1.54
2019-01-30T04:27:46.489Z,-1.61
2019-01-30T04:30:25.473Z,-1.67
2019-01-30T04:32:54.147Z,-1.52
2019-01-30T04:35:22.761Z,-1.65
2019-01-30T04:37:51.390Z,-1.57
2019-01-30T04:40:21.699Z,-1.72
2019-01-30T04:42:50.602Z,-1.67
2019-01-30T04:45:24.191Z,-1.65
2019-01-30T04:47:53.054Z,-1.53
2019-01-30T04:50:21.644Z,-1.58
2019-01-30T04:52:50.334Z,-1.63
2019-01-30T04:55:19.500Z,-1.60
2019-01-30T04:57:48.533Z,-1.64
2019-01-30T05:00:22.695Z,-1.63
2019-01-30T05:02:51.482Z,-1.75
2019-01-30T05:05:20.215Z,-1.66
2019-01-30T05:07:49.379Z,-1.61
2019-01-30T05:10:17.985Z,-1.65
2019-01-30T05:12:46.905Z,-1.61
2019-01-30T05:15:20.282Z,-1.68
2019-01-30T05:17:48.998Z,-1.81
2019-01-30T05:20:21.215Z,-1.79
2019-01-30T05:22:50.012Z,-1.72
2019-01-30T05:25:18.874Z,-1.69
2019-01-30T05:27:47.513Z,-1.59
2019-01-30T05:30:27.984Z,-1.78
2019-01-30T05:32:56.564Z,-1.81
2019-01-30T05:35:25.532Z,-1.77
2019-01-30T05:37:54.111Z,-1.75
2019-01-30T05:40:23.732Z,-1.78
2019-01-30T05:42:52.578Z,-1.82
2019-01-30T05:45:21.494Z,-1.86
2019-01-30T05:47:50.489Z,-1.84
2019-01-30T05:50:18.980Z,-1.89
2019-01-30T05:52:47.940Z,-1.83
2019-01-30T05:55:18.291Z,-1.82
2019-01-30T05:57:47.197Z,-1.86
2019-01-30T06:00:29.967Z,-1.78
2019-01-30T06:02:58.613Z,-1.77
2019-01-30T06:05:27.200Z,-1.78
2019-01-30T06:07:55.977Z,-1.78
2019-01-30T06:10:24.570Z,-1.75
2019-01-30T06:12:53.284Z,-1.77
2019-01-30T06:15:21.942Z,-1.77
2019-01-30T06:17:50.535Z,-1.81
2019-01-30T06:20:24.219Z,-1.81
2019-01-30T06:22:53.712Z,-1.73
2019-01-30T06:25:23.397Z,-1.78
2019-01-30T06:27:52.053Z,-1.78
2019-01-30T06:30:25.345Z,-1.78
2019-01-30T06:32:54.008Z,-1.74
2019-01-30T06:35:22.624Z,-1.86
2019-01-30T06:37:51.612Z,-1.81
2019-01-30T06:40:22.994Z,-1.76
2019-01-30T06:42:51.638Z,-1.81
2019-01-30T06:45:20.195Z,-1.71
2019-01-30T06:47:49.689Z,-1.76
2019-01-30T06:50:18.555Z,-1.62
2019-01-30T06:52:47.256Z,-1.68
2019-01-30T06:55:17.793Z,-1.76
2019-01-30T06:57:46.438Z,-1.75
2019-01-30T07:00:17.425Z,-1.63
2019-01-30T07:02:46.125Z,-1.59
2019-01-30T07:05:14.792Z,-1.54
2019-01-30T07:07:43.337Z,-1.48
2019-01-30T07:10:15.135Z,-1.59
2019-01-30T07:12:43.698Z,-1.60
2019-01-30T07:15:12.317Z,-1.54
2019-01-30T07:17:41.130Z,-1.57
2019-01-30T07:20:12.832Z,-1.58
2019-01-30T07:22:41.473Z,-1.51
2019-01-30T07:25:13.144Z,-1.42
2019-01-30T07:27:42.032Z,-1.46
2019-01-30T07:30:22.004Z,-1.42
2019-01-30T07:32:50.657Z,-1.37
2019-01-30T07:35:19.319Z,-1.44
2019-01-30T07:37:48.269Z,-1.19
2019-01-30T07:40:17.367Z,-1.21
2019-01-30T07:42:46.268Z,-1.13
2019-01-30T07:45:20.704Z,-1.16
2019-01-30T07:47:49.374Z,-1.09
2019-01-30T07:50:18.116Z,-0.97
2019-01-30T07:52:46.781Z,-0.93
2019-01-30T07:55:16.869Z,-0.97
2019-01-30T07:57:46.121Z,-0.82
2019-01-30T08:00:20.811Z,-0.86
2019-01-30T08:02:53.299Z,-0.78
2019-01-30T08:05:23.428Z,-0.65
2019-01-30T08:07:52.729Z,-0.65
2019-01-30T08:10:25.823Z,-0.75
2019-01-30T08:12:54.632Z,-0.65
2019-01-30T08:15:25.395Z,-0.59
2019-01-30T08:17:53.955Z,-0.47
2019-01-30T08:20:23.366Z,-0.44
2019-01-30T08:22:54.067Z,-0.32
2019-01-30T08:25:25.687Z,-0.26
2019-01-30T08:27:54.482Z,-0.30
2019-01-30T08:30:25.547Z,-0.24
2019-01-30T08:33:04.121Z,-0.24
2019-01-30T08:35:27.899Z,-0.09
2019-01-30T08:37:56.484Z,-0.06
2019-01-30T08:40:25.682Z,0.04
2019-01-30T08:42:54.629Z,0.18
2019-01-30T08:45:28.649Z,0.21
2019-01-30T08:47:57.521Z,0.32
2019-01-30T08:50:26.514Z,0.43
2019-01-30T08:52:56.143Z,0.09
2019-01-30T08:55:24.868Z,0.35
2019-01-30T08:57:53.653Z,0.40
2019-01-30T09:00:25.165Z,0.41
2019-01-30T09:02:54.588Z,0.32
2019-01-30T09:05:23.364Z,0.48
2019-01-30T09:07:53.288Z,0.51
2019-01-30T09:10:27.161Z,0.75
2019-01-30T09:12:55.953Z,0.75
2019-01-30T09:15:26.946Z,0.78
2019-01-30T09:17:55.714Z,0.65
2019-01-30T09:20:28.069Z,0.71
2019-01-30T09:22:56.956Z,0.81
2019-01-30T09:25:28.258Z,0.87
2019-01-30T09:27:57.004Z,0.78
2019-01-30T09:30:28.140Z,0.96
2019-01-30T09:32:57.173Z,0.98
2019-01-30T09:35:25.906Z,0.88
2019-01-30T09:37:55.059Z,1.10
2019-01-30T09:40:24.482Z,0.83
2019-01-30T09:42:53.300Z,1.08
2019-01-30T09:45:22.853Z,0.96
2019-01-30T09:47:51.492Z,1.03
2019-01-30T09:50:25.513Z,0.94
2019-01-30T09:52:55.163Z,1.26
2019-01-30T09:55:28.222Z,1.22
2019-01-30T09:57:56.944Z,1.11
2019-01-30T10:00:34.253Z,1.32
2019-01-30T10:03:03.061Z,1.66
2019-01-30T10:05:31.770Z,1.64
2019-01-30T10:08:00.551Z,1.57
2019-01-30T10:10:37.737Z,1.80
2019-01-30T10:13:06.818Z,1.95
2019-01-30T10:15:38.696Z,1.97
2019-01-30T10:18:07.601Z,2.04
2019-01-30T10:20:38.313Z,2.14
2019-01-30T10:23:07.046Z,2.48
2019-01-30T10:25:47.015Z,2.97
2019-01-30T10:28:17.240Z,2.41
2019-01-30T10:30:47.714Z,2.53
2019-01-30T10:33:17.032Z,2.67
2019-01-30T10:35:46.375Z,2.73
2019-01-30T10:38:15.597Z,3.16
2019-01-30T10:40:44.878Z,3.38
2019-01-30T10:43:13.799Z,4.25
2019-01-30T10:45:43.628Z,4.65
2019-01-30T10:48:12.440Z,4.92
2019-01-30T10:50:41.368Z,4.26
2019-01-30T10:53:10.464Z,5.30
2019-01-30T10:55:40.748Z,5.68
2019-01-30T10:58:12.458Z,5.43
2019-01-30T11:00:47.677Z,5.36
2019-01-30T11:03:17.848Z,4.64
2019-01-30T11:05:47.339Z,4.07
2019-01-30T11:08:16.657Z,4.22
2019-01-30T11:10:45.914Z,3.53
2019-01-30T11:13:17.037Z,5.56
2019-01-30T11:15:46.577Z,7.44
2019-01-30T11:18:16.654Z,6.72
2019-01-30T11:20:45.981Z,5.08
2019-01-30T11:23:14.912Z,4.58
2019-01-30T11:25:46.495Z,4.89
2019-01-30T11:28:15.635Z,4.86
2019-01-30T11:30:44.622Z,4.37
2019-01-30T11:33:13.802Z,5.73
2019-01-30T11:35:42.955Z,5.44
2019-01-30T11:38:11.817Z,5.24
2019-01-30T11:40:41.285Z,5.70
2019-01-30T11:43:10.059Z,5.44
2019-01-30T11:45:42.385Z,4.95
2019-01-30T11:48:11.362Z,4.43
2019-01-30T11:50:40.481Z,3.13
2019-01-30T11:53:09.386Z,4.33
2019-01-30T11:55:39.021Z,3.79
2019-01-30T11:58:08.132Z,4.46
2019-01-30T12:00:51.132Z,4.60
2019-01-30T12:03:19.897Z,4.74
2019-01-30T12:05:48.594Z,4.67
2019-01-30T12:08:17.532Z,3.76
2019-01-30T12:10:47.149Z,4.31
2019-01-30T12:13:16.818Z,4.15
2019-01-30T12:15:45.554Z,4.69
2019-01-30T12:18:16.338Z,4.34
2019-01-30T12:20:46.921Z,4.88
2019-01-30T12:23:16.395Z,5.04
2019-01-30T12:25:45.602Z,4.03
2019-01-30T12:28:14.961Z,4.71
2019-01-30T12:30:44.621Z,4.69
2019-01-30T12:33:13.533Z,4.07
2019-01-30T12:35:42.229Z,3.73
2019-01-30T12:38:11.166Z,3.62
2019-01-30T12:40:41.709Z,3.08
2019-01-30T12:43:13.663Z,2.92
2019-01-30T12:45:42.341Z,3.06
2019-01-30T12:48:12.899Z,2.85
2019-01-30T12:50:45.939Z,3.04
2019-01-30T12:53:14.787Z,3.22
2019-01-30T12:55:43.902Z,3.33
2019-01-30T12:58:12.685Z,3.03
2019-01-30T13:00:42.611Z,3.23
2019-01-30T13:03:12.905Z,3.08
2019-01-30T13:05:41.785Z,2.95
2019-01-30T13:08:10.516Z,2.99
2019-01-30T13:10:39.600Z,2.87
2019-01-30T13:13:08.599Z,2.81
2019-01-30T13:15:37.611Z,3.20
2019-01-30T13:18:17.507Z,2.99
2019-01-30T13:20:36.876Z,3.05
2019-01-30T13:23:06.027Z,2.93
2019-01-30T13:25:35.654Z,2.79
2019-01-30T13:28:05.506Z,2.67
2019-01-30T13:30:38.716Z,2.88
2019-01-30T13:33:08.234Z,2.63
2019-01-30T13:35:36.861Z,2.72
2019-01-30T13:38:06.318Z,2.63
2019-01-30T13:40:36.889Z,2.80
2019-01-30T13:43:07.303Z,2.53
2019-01-30T13:45:36.021Z,2.39
2019-01-30T13:48:07.797Z,2.60
2019-01-30T13:50:38.447Z,2.71
2019-01-30T13:53:07.370Z,2.61
2019-01-30T13:55:36.449Z,2.61
2019-01-30T13:58:05.607Z,2.49
2019-01-30T14:00:38.722Z,2.44
2019-01-30T14:03:07.521Z,2.50
2019-01-30T14:05:36.809Z,2.45
2019-01-30T14:08:08.204Z,2.35
2019-01-30T14:10:37.453Z,2.32
2019-01-30T14:13:06.716Z,2.39
2019-01-30T14:15:36.022Z,2.44
2019-01-30T14:18:06.779Z,2.40
2019-01-30T14:20:36.047Z,2.30
2019-01-30T14:23:05.537Z,2.25
2019-01-30T14:25:35.646Z,2.35
2019-01-30T14:28:04.777Z,2.17
2019-01-30T14:30:35.756Z,2.34
2019-01-30T14:33:05.133Z,2.25
2019-01-30T14:35:36.254Z,2.32
2019-01-30T14:38:05.939Z,2.12
2019-01-30T14:40:35.488Z,2.19
2019-01-30T14:43:04.648Z,2.19
2019-01-30T14:45:34.345Z,2.28
2019-01-30T14:48:03.187Z,2.13
2019-01-30T14:50:32.663Z,2.06
2019-01-30T14:53:06.665Z,2.10
2019-01-30T14:55:36.882Z,2.11
2019-01-30T14:58:07.687Z,2.15
2019-01-30T15:00:36.658Z,2.11
2019-01-30T15:03:07.027Z,2.06
2019-01-30T15:05:36.662Z,2.21
2019-01-30T15:08:07.893Z,2.08
2019-01-30T15:10:40.363Z,1.83
2019-01-30T15:13:09.663Z,1.93
2019-01-30T15:15:39.125Z,1.92
2019-01-30T15:18:09.806Z,1.89
2019-01-30T15:20:39.574Z,1.80
2019-01-30T15:23:09.613Z,1.75
2019-01-30T15:25:39.310Z,1.69
2019-01-30T15:28:20.085Z,1.72
2019-01-30T15:30:49.424Z,1.66
2019-01-30T15:33:18.678Z,1.53
2019-01-30T15:35:47.554Z,1.47
2019-01-30T15:38:16.874Z,1.63
2019-01-30T15:40:48.031Z,1.59
2019-01-30T15:43:16.930Z,1.49
2019-01-30T15:45:45.829Z,1.40
2019-01-30T15:48:15.110Z,1.40
2019-01-30T15:50:43.900Z,1.35
2019-01-30T15:53:14.401Z,1.39
2019-01-30T15:55:43.350Z,1.37
2019-01-30T15:58:13.536Z,1.43
2019-01-30T16:00:47.904Z,1.30
2019-01-30T16:03:17.106Z,1.23
2019-01-30T16:05:46.155Z,1.27
2019-01-30T16:08:15.629Z,1.21
2019-01-30T16:10:44.513Z,1.25
2019-01-30T16:13:13.112Z,1.21
2019-01-30T16:15:45.471Z,1.26
2019-01-30T16:18:14.294Z,1.29
2019-01-30T16:20:44.662Z,1.11
2019-01-30T16:23:14.502Z,1.11
2019-01-30T16:25:46.010Z,1.14
2019-01-30T16:28:14.873Z,1.05
2019-01-30T16:30:46.443Z,1.02
2019-01-30T16:33:15.755Z,0.98
2019-01-30T16:35:55.695Z,0.97
2019-01-30T16:38:17.953Z,1.03
2019-01-30T16:40:46.792Z,0.94
2019-01-30T16:43:16.122Z,0.89
2019-01-30T16:45:47.786Z,1.06
2019-01-30T16:48:16.570Z,0.91
2019-01-30T16:50:45.524Z,0.88
2019-01-30T16:53:15.530Z,0.94
2019-01-30T16:55:44.760Z,0.94
2019-01-30T16:58:13.878Z,0.87
2019-01-30T17:00:42.883Z,0.88
2019-01-30T17:03:13.519Z,0.79
2019-01-30T17:05:43.037Z,0.84
2019-01-30T17:08:13.749Z,0.84
2019-01-30T17:10:43.131Z,0.86
2019-01-30T17:13:12.781Z,0.78
2019-01-30T17:15:43.742Z,0.77
2019-01-30T17:18:13.680Z,0.90
2019-01-30T17:20:42.759Z,0.89
2019-01-30T17:23:12.910Z,0.76
2019-01-30T17:25:41.918Z,0.75
2019-01-30T17:28:12.455Z,0.63
2019-01-30T17:30:44.543Z,0.64
2019-01-30T17:33:13.703Z,0.64
2019-01-30T17:35:42.953Z,0.77
2019-01-30T17:38:12.003Z,0.68
2019-01-30T17:40:42.711Z,0.83
2019-01-30T17:43:11.904Z,0.77
2019-01-30T17:45:40.690Z,0.74
2019-01-30T17:48:10.364Z,0.78
2019-01-30T17:50:39.286Z,0.88
2019-01-30T17:53:08.598Z,0.81
2019-01-30T17:55:37.687Z,0.93
2019-01-30T17:58:09.295Z,0.79
2019-01-30T18:00:46.899Z,0.91
2019-01-30T18:03:16.457Z,0.91
2019-01-30T18:05:45.862Z,0.83
2019-01-30T18:08:17.098Z,0.97
2019-01-30T18:10:46.414Z,0.85
2019-01-30T18:13:17.056Z,0.95
2019-01-30T18:15:46.524Z,0.92
2019-01-30T18:18:16.572Z,1.02
2019-01-30T18:20:45.786Z,0.94
2019-01-30T18:23:14.729Z,0.94
2019-01-30T18:26:01.347Z,0.95
2019-01-30T18:28:33.359Z,0.91
2019-01-30T18:31:03.210Z,0.98
2019-01-30T18:33:34.645Z,0.89
2019-01-30T18:36:04.894Z,1.03
2019-01-30T18:38:35.961Z,1.06
2019-01-30T18:41:07.091Z,0.93
2019-01-30T18:43:36.555Z,0.83
2019-01-30T18:46:05.706Z,0.95
2019-01-30T18:48:35.150Z,0.66
2019-01-30T18:51:05.892Z,0.72
2019-01-30T18:53:36.493Z,0.77
2019-01-30T18:56:09.465Z,0.57
2019-01-30T18:58:39.533Z,0.56
2019-01-30T19:01:09.478Z,0.57
2019-01-30T19:03:39.803Z,0.68
2019-01-30T19:06:10.657Z,0.48
2019-01-30T19:08:40.011Z,0.51
2019-01-30T19:11:09.325Z,0.47
2019-01-30T19:13:39.640Z,0.57
2019-01-30T19:16:09.688Z,0.54
2019-01-30T19:18:38.865Z,0.51
2019-01-30T19:21:08.701Z,0.45
2019-01-30T19:23:39.037Z,0.41
2019-01-30T19:26:11.428Z,0.34
2019-01-30T19:28:41.863Z,0.34
2019-01-30T19:31:11.540Z,0.31
2019-01-30T19:33:41.295Z,0.37
2019-01-30T19:36:11.288Z,0.34
2019-01-30T19:38:40.749Z,0.40
2019-01-30T19:41:10.237Z,0.35
2019-01-30T19:43:41.182Z,0.30
2019-01-30T19:46:12.604Z,0.30
2019-01-30T19:48:41.824Z,0.28
2019-01-30T19:51:12.410Z,0.30
2019-01-30T19:53:43.458Z,0.30
2019-01-30T19:56:12.415Z,0.41
2019-01-30T19:58:41.350Z,0.47
2019-01-30T20:01:11.710Z,0.44
2019-01-30T20:03:42.210Z,0.43
2019-01-30T20:06:12.446Z,0.28
2019-01-30T20:08:43.274Z,0.31
2019-01-30T20:11:14.573Z,0.24
2019-01-30T20:13:44.922Z,0.32
2019-01-30T20:16:16.027Z,0.34
2019-01-30T20:18:45.058Z,0.17
2019-01-30T20:21:24.776Z,0.15
2019-01-30T20:23:57.028Z,0.11
2019-01-30T20:26:29.140Z,0.18
2019-01-30T20:28:59.249Z,0.10
2019-01-30T20:31:28.617Z,0.25
2019-01-30T20:34:09.785Z,0.17
2019-01-30T20:36:32.099Z,0.13
2019-01-30T20:39:02.348Z,0.25
2019-01-30T20:41:31.491Z,0.08
2019-01-30T20:44:00.582Z,0.09
2019-01-30T20:46:31.480Z,0.15
2019-01-30T20:49:01.896Z,0.12
2019-01-30T20:51:34.904Z,-0.03
2019-01-30T20:54:06.536Z,-0.04
2019-01-30T20:56:36.635Z,0.07
2019-01-30T20:59:06.623Z,0.13
2019-01-30T21:01:36.143Z,0.02
2019-01-30T21:04:07.199Z,0.07
2019-01-30T21:06:37.154Z,0.02
2019-01-30T21:09:08.866Z,-0.02
2019-01-30T21:11:38.564Z,-0.10
2019-01-30T21:14:07.910Z,-0.11
2019-01-30T21:16:37.725Z,-0.12
2019-01-30T21:19:10.977Z,-0.02
2019-01-30T21:21:41.571Z,-0.05
2019-01-30T21:24:12.564Z,-0.14
2019-01-30T21:26:42.571Z,-0.20
2019-01-30T21:29:14.174Z,-0.11
2019-01-30T21:31:44.419Z,-0.10
2019-01-30T21:34:13.984Z,-0.08
2019-01-30T21:36:43.882Z,-0.05
2019-01-30T21:39:17.440Z,-0.06
2019-01-30T21:41:46.294Z,-0.12
2019-01-30T21:44:16.502Z,-0.11
2019-01-30T21:46:45.578Z,-0.09
2019-01-30T21:49:15.560Z,-0.09
2019-01-30T21:51:45.120Z,-0.21
2019-01-30T21:54:14.193Z,-0.15
2019-01-30T21:56:45.291Z,-0.14
2019-01-30T21:59:14.087Z,-0.15
2019-01-30T22:01:43.958Z,-0.30
2019-01-30T22:04:13.363Z,-0.20
2019-01-30T22:06:46.750Z,-0.35
2019-01-30T22:09:19.214Z,-0.18
2019-01-30T22:11:49.239Z,-0.23
2019-01-30T22:14:20.339Z,-0.13
2019-01-30T22:16:51.452Z,-0.12
2019-01-30T22:19:20.348Z,-0.16
2019-01-30T22:21:49.336Z,-0.20
2019-01-30T22:24:18.810Z,-0.23
2019-01-30T22:26:47.697Z,-0.28
2019-01-30T22:29:17.047Z,-0.24
2019-01-30T22:31:46.289Z,-0.24
2019-01-30T22:34:15.997Z,-0.36
2019-01-30T22:36:44.699Z,-0.31
2019-01-30T22:39:13.363Z,-0.20
2019-01-30T22:41:42.275Z,-0.30
2019-01-30T22:44:10.964Z,-0.31
2019-01-30T22:46:40.226Z,-0.28
2019-01-30T22:49:09.291Z,-0.33
2019-01-30T22:51:38.016Z,-0.25
2019-01-30T22:54:06.648Z,-0.40
2019-01-30T22:56:36.628Z,-0.37
2019-01-30T22:59:05.418Z,-0.31
2019-01-30T23:01:37.291Z,-0.26
2019-01-30T23:04:27.373Z,-0.27
2019-01-30T23:07:04.417Z,-0.23
2019-01-30T23:09:59.793Z,-0.28
2019-01-30T23:12:37.183Z,-0.35
2019-01-30T23:15:20.767Z,-0.41
2019-01-30T23:18:10.786Z,-0.36
2019-01-30T23:20:45.654Z,-0.39
2019-01-30T23:23:43.476Z,-0.30
2019-01-30T23:26:18.817Z,-0.26
2019-01-30T23:29:06.993Z,-0.45
2019-01-30T23:31:55.368Z,-0.31
2019-01-30T23:34:42.040Z,-0.36
2019-01-30T23:37:22.939Z,-0.45
2019-01-30T23:40:15.202Z,-0.36
2019-01-30T23:43:09.704Z,-0.42
2019-01-30T23:45:44.017Z,-0.40
2019-01-30T23:48:47.618Z,-0.50
2019-01-30T23:51:31.288Z,-0.46
2019-01-30T23:54:03.212Z,-0.32
2019-01-30T23:56:40.990Z,-0.36
2019-01-30T23:59:18.732Z,-0.33
